Accueil
METAR-TAF:

METAR-TAF

Aéroports :

Aéroport de Cordoue

Cordoue, Espagne

latitude: 37-51N, longitude: 004-51W, altitude: 90 m

Observation

Le bulletin a été fait il y a 17 minutes, à 08:30 UTC
Vent 5 kt de est, variant entre est/nord-est et est/sud-est
Température 15°C
Humidité 55%
Pression 1020 hPa
Visibilité 10 km ou plus
pas de nuages en-dessous de 1500 mètres et pas de cumulonimbus.

METAR: LEBA 190830Z 08005KT 060V120 CAVOK 15/06 Q1020

Heure: 10:47 (08:47 UTC)

Prévision

Le bulletin a été fait il y a 47 minutes, à 08:00 UTC
Prévision valable du 19 à 09 UTC au 20 à 09 UTC
Vent 4 kt de est
Visibilité 10 km ou plus
pas de nuages en-dessous de 1500 mètres et pas de cumulonimbus.

TAF: LEBA 190800Z 1909/2009 08004KT CAVOK TX24/1916Z TN10/2006Z

Observations et prévisions météorologiques de plus de 4000 aéroports (messages METAR et TAF).

Les stations disponibles sont représentées par des disques jaunes et rouges sur la carte.

Passer la souris dessus pour voir le nom de la station.

Cliquer dessus pour voir les observations et prévisions météorologiques.

Pour changer de carte: cliquez sur les boutons verts avec une croix noire pour zoomer, sur le bouton vert avec un tiret pour effectuer un zoom arrière, ou sur les flèches vertes pour les cartes adjacentes.


METAR-TAF: